createdAt,value
2018-08-25T00:00:33.401Z,15.70
2018-08-25T00:03:01.813Z,15.70
2018-08-25T00:05:30.244Z,15.72
2018-08-25T00:07:58.702Z,15.72
2018-08-25T00:10:27.182Z,15.68
2018-08-25T00:12:55.596Z,15.67
2018-08-25T00:15:24.108Z,15.63
2018-08-25T00:17:52.563Z,15.65
2018-08-25T00:20:20.984Z,15.66
2018-08-25T00:22:49.458Z,15.64
2018-08-25T00:25:17.941Z,15.64
2018-08-25T00:27:46.407Z,15.65
2018-08-25T00:30:20.081Z,15.62
2018-08-25T00:32:48.577Z,15.60
2018-08-25T00:35:17.035Z,15.62
2018-08-25T00:37:45.538Z,15.63
2018-08-25T00:40:14.208Z,15.62
2018-08-25T00:42:42.695Z,15.63
2018-08-25T00:45:11.304Z,15.64
2018-08-25T00:47:39.808Z,15.63
2018-08-25T00:50:08.298Z,15.65
2018-08-25T00:52:36.853Z,15.63
2018-08-25T00:55:05.479Z,15.60
2018-08-25T00:57:33.989Z,15.58
2018-08-25T01:00:02.405Z,15.57
2018-08-25T01:02:30.873Z,15.57
2018-08-25T01:04:59.275Z,15.58
2018-08-25T01:07:27.752Z,15.60
2018-08-25T01:09:56.224Z,15.58
2018-08-25T01:12:24.674Z,15.59
2018-08-25T01:14:53.168Z,15.58
2018-08-25T01:17:21.609Z,15.58
2018-08-25T01:19:50.122Z,15.59
2018-08-25T01:22:18.628Z,15.56
2018-08-25T01:24:47.141Z,15.58
2018-08-25T01:27:15.664Z,15.58
2018-08-25T01:29:44.102Z,15.56
2018-08-25T01:32:12.566Z,15.56
2018-08-25T01:34:40.988Z,15.55
2018-08-25T01:37:09.419Z,15.57
2018-08-25T01:39:37.896Z,15.57
2018-08-25T01:42:06.601Z,15.55
2018-08-25T01:44:35.089Z,15.54
2018-08-25T01:47:03.638Z,15.53
2018-08-25T01:49:32.178Z,15.53
2018-08-25T01:52:00.739Z,15.52
2018-08-25T01:54:29.194Z,15.52
2018-08-25T01:56:57.642Z,15.54
2018-08-25T01:59:26.157Z,15.53
2018-08-25T02:01:54.552Z,15.51
2018-08-25T02:04:23.015Z,15.49
2018-08-25T02:06:51.460Z,15.50
2018-08-25T02:09:19.921Z,15.50
2018-08-25T02:11:48.351Z,15.51
2018-08-25T02:14:16.911Z,15.52
2018-08-25T02:16:45.378Z,15.50
2018-08-25T02:19:13.809Z,15.49
2018-08-25T02:21:42.312Z,15.51
2018-08-25T02:24:10.808Z,15.51
2018-08-25T02:26:39.304Z,15.54
2018-08-25T02:29:07.787Z,15.50
2018-08-25T02:31:36.381Z,15.48
2018-08-25T02:34:04.885Z,15.45
2018-08-25T02:36:33.312Z,15.44
2018-08-25T02:39:01.770Z,15.43
2018-08-25T02:41:30.289Z,15.41
2018-08-25T02:43:58.846Z,15.37
2018-08-25T02:46:27.258Z,15.37
2018-08-25T02:48:55.665Z,15.38
2018-08-25T02:51:24.127Z,15.37
2018-08-25T02:53:52.557Z,15.40
2018-08-25T02:56:20.984Z,15.40
2018-08-25T02:58:49.395Z,15.34
2018-08-25T03:01:17.818Z,15.21
2018-08-25T03:03:46.215Z,15.01
2018-08-25T03:06:14.680Z,14.86
2018-08-25T03:08:43.081Z,14.59
2018-08-25T03:11:11.490Z,14.31
2018-08-25T03:13:39.896Z,14.10
2018-08-25T03:16:08.308Z,14.13
2018-08-25T03:18:36.846Z,14.11
2018-08-25T03:21:05.378Z,14.15
2018-08-25T03:23:33.823Z,14.20
2018-08-25T03:26:02.213Z,14.24
2018-08-25T03:28:30.669Z,14.26
2018-08-25T03:30:59.923Z,14.25
2018-08-25T03:33:28.352Z,14.24
2018-08-25T03:35:56.788Z,14.24
2018-08-25T03:38:25.204Z,14.25
2018-08-25T03:40:53.590Z,14.20
2018-08-25T03:43:22.721Z,13.83
2018-08-25T03:45:51.107Z,13.66
2018-08-25T03:48:19.825Z,13.59
2018-08-25T03:50:48.291Z,13.50
2018-08-25T03:53:16.675Z,13.38
2018-08-25T03:55:45.120Z,13.35
2018-08-25T03:58:13.518Z,13.46
2018-08-25T04:00:41.968Z,13.44
2018-08-25T04:03:10.441Z,13.30
2018-08-25T04:05:38.861Z,13.25
2018-08-25T04:08:07.231Z,13.24
2018-08-25T04:10:35.627Z,13.25
2018-08-25T04:13:04.522Z,13.24
2018-08-25T04:15:33.003Z,13.25
2018-08-25T04:18:01.398Z,13.20
2018-08-25T04:20:29.802Z,13.13
2018-08-25T04:22:58.201Z,13.16
2018-08-25T04:25:26.601Z,13.16
2018-08-25T04:27:54.996Z,13.19
2018-08-25T04:30:23.371Z,13.26
2018-08-25T04:32:51.785Z,13.29
2018-08-25T04:35:20.168Z,13.25
2018-08-25T04:37:48.645Z,13.31
2018-08-25T04:40:17.069Z,13.37
2018-08-25T04:42:45.479Z,13.40
2018-08-25T04:45:13.867Z,13.42
2018-08-25T04:47:42.237Z,13.38
2018-08-25T04:50:10.734Z,13.38
2018-08-25T04:52:39.164Z,13.36
2018-08-25T04:55:07.560Z,13.33
2018-08-25T04:57:35.954Z,13.31
2018-08-25T05:00:04.932Z,13.13
2018-08-25T05:02:33.362Z,12.93
2018-08-25T05:05:01.784Z,12.94
2018-08-25T05:07:30.264Z,12.90
2018-08-25T05:09:58.839Z,12.92
2018-08-25T05:12:27.269Z,12.98
2018-08-25T05:14:55.672Z,12.89
2018-08-25T05:17:24.141Z,12.81
2018-08-25T05:19:52.563Z,12.81
2018-08-25T05:22:21.005Z,12.78
2018-08-25T05:24:49.637Z,12.83
2018-08-25T05:27:18.042Z,12.85
2018-08-25T05:29:46.470Z,12.89
2018-08-25T05:32:14.982Z,12.65
2018-08-25T05:34:43.399Z,12.96
2018-08-25T05:37:11.823Z,12.90
2018-08-25T05:39:40.188Z,13.02
2018-08-25T05:42:08.651Z,13.03
2018-08-25T05:44:37.101Z,13.03
2018-08-25T05:47:05.640Z,12.97
2018-08-25T05:49:34.194Z,12.97
2018-08-25T05:52:02.639Z,12.80
2018-08-25T05:54:31.046Z,12.80
2018-08-25T05:56:59.457Z,12.76
2018-08-25T05:59:27.890Z,12.75
2018-08-25T06:01:56.332Z,12.74
2018-08-25T06:04:24.745Z,12.65
2018-08-25T06:06:53.208Z,12.72
2018-08-25T06:09:21.634Z,12.81
2018-08-25T06:11:50.048Z,12.82
2018-08-25T06:14:18.508Z,12.91
2018-08-25T06:16:46.875Z,12.99
2018-08-25T06:19:15.325Z,12.58
2018-08-25T06:21:43.690Z,12.43
2018-08-25T06:24:12.242Z,12.84
2018-08-25T06:26:40.701Z,12.86
2018-08-25T06:29:09.102Z,12.79
2018-08-25T06:31:37.456Z,12.75
2018-08-25T06:34:07.098Z,12.82
2018-08-25T06:36:35.573Z,12.82
2018-08-25T06:39:06.339Z,12.83
2018-08-25T06:41:34.765Z,12.79
2018-08-25T06:44:03.244Z,12.77
2018-08-25T06:46:31.699Z,12.80
2018-08-25T06:49:00.114Z,12.79
2018-08-25T06:51:28.540Z,12.83
2018-08-25T06:53:56.954Z,12.87
2018-08-25T06:56:25.382Z,12.79
2018-08-25T06:58:53.832Z,12.82
2018-08-25T07:01:22.285Z,12.86
2018-08-25T07:03:50.844Z,12.89
2018-08-25T07:06:19.322Z,12.85
2018-08-25T07:08:47.703Z,12.91
2018-08-25T07:11:16.162Z,12.89
2018-08-25T07:13:44.598Z,12.98
2018-08-25T07:16:12.971Z,13.01
2018-08-25T07:18:41.428Z,12.95
2018-08-25T07:21:09.855Z,12.95
2018-08-25T07:23:38.338Z,13.00
2018-08-25T07:26:06.924Z,12.89
2018-08-25T07:28:35.387Z,12.84
2018-08-25T07:31:03.825Z,12.85
2018-08-25T07:33:32.462Z,12.85
2018-08-25T07:36:00.959Z,12.84
2018-08-25T07:38:29.391Z,12.79
2018-08-25T07:40:57.853Z,12.79
2018-08-25T07:46:08.344Z,12.94
2018-08-25T07:48:36.857Z,13.05
2018-08-25T07:51:05.380Z,13.02
2018-08-25T07:53:33.891Z,13.06
2018-08-25T07:56:02.310Z,13.06
2018-08-25T07:58:30.797Z,13.09
2018-08-25T08:00:59.192Z,13.02
2018-08-25T08:03:27.651Z,13.03
2018-08-25T08:05:56.103Z,13.10
2018-08-25T08:08:24.605Z,13.25
2018-08-25T08:10:53.111Z,13.20
2018-08-25T08:13:21.542Z,13.27
2018-08-25T08:15:50.036Z,13.37
2018-08-25T08:18:18.510Z,13.32
2018-08-25T08:20:47.060Z,13.38
2018-08-25T08:23:15.567Z,13.47
2018-08-25T08:25:44.052Z,13.55
2018-08-25T08:28:12.508Z,13.58
2018-08-25T08:30:41.024Z,13.54
2018-08-25T08:33:09.528Z,13.52
2018-08-25T08:35:38.182Z,13.60
2018-08-25T08:38:06.643Z,13.61
2018-08-25T08:40:35.449Z,13.68
2018-08-25T08:43:03.892Z,13.72
2018-08-25T08:45:32.500Z,13.78
2018-08-25T08:48:00.890Z,13.78
2018-08-25T08:50:29.386Z,13.88
2018-08-25T08:52:57.761Z,13.91
2018-08-25T08:55:26.271Z,13.94
2018-08-25T08:57:54.700Z,13.97
2018-08-25T09:00:23.148Z,13.98
2018-08-25T09:02:51.652Z,13.93
2018-08-25T09:05:20.093Z,13.96
2018-08-25T09:07:48.561Z,14.01
2018-08-25T09:10:17.053Z,14.04
2018-08-25T09:12:45.549Z,14.07
2018-08-25T09:15:13.999Z,14.12
2018-08-25T09:17:42.504Z,14.11
2018-08-25T09:20:11.535Z,14.13
2018-08-25T09:22:40.025Z,14.15
2018-08-25T09:25:08.462Z,14.21
2018-08-25T09:27:36.905Z,14.33
2018-08-25T09:30:05.503Z,14.37
2018-08-25T09:32:33.963Z,14.45
2018-08-25T09:35:02.393Z,14.40
2018-08-25T09:37:30.872Z,14.33
2018-08-25T09:39:59.256Z,14.39
2018-08-25T09:42:27.703Z,14.46
2018-08-25T09:44:56.138Z,14.53
2018-08-25T09:47:24.549Z,14.65
2018-08-25T09:49:53.311Z,14.71
2018-08-25T09:52:21.881Z,14.77
2018-08-25T09:54:50.333Z,14.80
2018-08-25T09:57:18.865Z,14.79
2018-08-25T09:59:47.489Z,14.69
2018-08-25T10:02:15.879Z,14.84
2018-08-25T10:04:44.334Z,14.98
2018-08-25T10:07:12.779Z,15.07
2018-08-25T10:09:41.172Z,15.07
2018-08-25T10:12:09.622Z,15.14
2018-08-25T10:14:38.055Z,15.21
2018-08-25T10:17:06.803Z,15.32
2018-08-25T10:19:35.333Z,15.40
2018-08-25T10:22:03.816Z,15.46
2018-08-25T10:24:32.256Z,15.44
2018-08-25T10:27:00.705Z,15.30
2018-08-25T10:29:29.162Z,15.37
2018-08-25T10:31:57.624Z,15.32
2018-08-25T10:34:26.075Z,15.26
2018-08-25T10:36:54.593Z,15.22
2018-08-25T10:39:23.046Z,15.31
2018-08-25T10:41:51.614Z,15.43
2018-08-25T10:44:19.903Z,15.56
2018-08-25T10:46:48.297Z,15.59
2018-08-25T10:49:16.713Z,15.70
2018-08-25T10:51:45.235Z,15.79
2018-08-25T10:54:13.762Z,15.79
2018-08-25T10:56:42.226Z,15.61
2018-08-25T10:59:10.687Z,15.53
2018-08-25T11:01:39.145Z,15.52
2018-08-25T11:04:07.612Z,15.45
2018-08-25T11:06:36.008Z,15.49
2018-08-25T11:09:07.151Z,15.53
2018-08-25T11:11:35.660Z,15.61
2018-08-25T11:14:04.161Z,15.71
2018-08-25T11:16:32.647Z,15.74
2018-08-25T11:19:01.004Z,15.86
2018-08-25T11:21:29.468Z,15.98
2018-08-25T11:23:57.923Z,16.02
2018-08-25T11:26:26.469Z,15.86
2018-08-25T11:28:54.994Z,15.67
2018-08-25T11:31:23.507Z,15.55
2018-08-25T11:33:51.938Z,15.47
2018-08-25T11:36:20.444Z,15.57
2018-08-25T11:38:49.085Z,15.63
2018-08-25T11:41:17.529Z,15.65
2018-08-25T11:43:45.975Z,15.81
2018-08-25T11:46:14.437Z,16.07
2018-08-25T11:48:42.911Z,16.09
2018-08-25T11:51:11.292Z,16.01
2018-08-25T11:53:39.729Z,15.84
2018-08-25T11:56:08.141Z,15.72
2018-08-25T11:58:36.622Z,15.55
2018-08-25T12:01:05.108Z,15.52
2018-08-25T12:03:33.662Z,15.44
2018-08-25T12:06:01.988Z,15.45
2018-08-25T12:08:30.491Z,15.63
2018-08-25T12:10:59.011Z,15.85
2018-08-25T12:13:27.425Z,15.97
2018-08-25T12:15:55.911Z,16.06
2018-08-25T12:18:24.347Z,16.15
2018-08-25T12:20:52.788Z,16.24
2018-08-25T12:23:21.234Z,16.26
2018-08-25T12:25:49.771Z,16.16
2018-08-25T12:28:18.393Z,16.08
2018-08-25T12:30:46.877Z,15.99
2018-08-25T12:33:15.361Z,15.93
2018-08-25T12:35:43.837Z,15.91
2018-08-25T12:38:12.358Z,15.89
2018-08-25T12:40:40.765Z,15.87
2018-08-25T12:43:09.223Z,15.89
2018-08-25T12:45:37.697Z,15.94
2018-08-25T12:48:06.165Z,16.04
2018-08-25T12:50:34.616Z,16.23
2018-08-25T12:53:03.749Z,16.06
2018-08-25T12:55:32.204Z,15.95
2018-08-25T12:58:00.696Z,15.85
2018-08-25T13:00:29.092Z,15.79
2018-08-25T13:02:57.630Z,15.72
2018-08-25T13:05:26.133Z,15.79
2018-08-25T13:07:54.599Z,15.90
2018-08-25T13:10:23.092Z,16.15
2018-08-25T13:12:51.562Z,16.41
2018-08-25T13:15:20.015Z,16.57
2018-08-25T13:17:48.520Z,16.58
2018-08-25T13:20:16.987Z,16.67
2018-08-25T13:22:45.464Z,16.93
2018-08-25T13:25:13.885Z,17.43
2018-08-25T13:27:42.339Z,17.03
2018-08-25T13:30:10.837Z,16.65
2018-08-25T13:32:39.315Z,16.43
2018-08-25T13:35:07.785Z,16.30
2018-08-25T13:37:36.250Z,16.58
2018-08-25T13:40:04.910Z,16.86
2018-08-25T13:42:33.352Z,17.03
2018-08-25T13:45:02.165Z,17.27
2018-08-25T13:47:30.787Z,17.43
2018-08-25T13:49:59.255Z,17.09
2018-08-25T13:52:27.996Z,16.77
2018-08-25T13:54:56.404Z,16.55
2018-08-25T13:57:24.943Z,16.32
2018-08-25T13:59:53.366Z,16.16
2018-08-25T14:02:22.042Z,16.40
2018-08-25T14:04:50.443Z,16.51
2018-08-25T14:07:18.887Z,16.48
2018-08-25T14:09:47.588Z,16.73
2018-08-25T14:12:16.014Z,16.67
2018-08-25T14:14:44.524Z,16.50
2018-08-25T14:17:12.932Z,16.26
2018-08-25T14:19:41.382Z,16.32
2018-08-25T14:22:10.914Z,16.36
2018-08-25T14:24:39.985Z,16.37
2018-08-25T14:27:08.396Z,16.34
2018-08-25T14:29:36.815Z,16.30
2018-08-25T14:32:05.227Z,16.33
2018-08-25T14:34:33.769Z,16.22
2018-08-25T14:37:02.140Z,16.25
2018-08-25T14:39:31.304Z,16.25
2018-08-25T14:41:59.731Z,16.13
2018-08-25T14:44:28.132Z,16.24
2018-08-25T14:46:56.980Z,16.39
2018-08-25T14:49:25.424Z,16.32
2018-08-25T14:51:53.779Z,16.33
2018-08-25T14:54:22.954Z,16.36
2018-08-25T14:56:51.382Z,16.27
2018-08-25T14:59:19.805Z,16.15
2018-08-25T15:01:48.216Z,16.07
2018-08-25T15:04:16.682Z,15.94
2018-08-25T15:06:45.127Z,15.85
2018-08-25T15:09:14.531Z,15.78
2018-08-25T15:11:44.705Z,15.73
2018-08-25T15:14:13.148Z,15.40
2018-08-25T15:16:41.649Z,15.29
2018-08-25T15:19:10.117Z,15.10
2018-08-25T15:21:38.561Z,15.16
2018-08-25T15:24:07.116Z,15.18
2018-08-25T15:26:35.601Z,15.29
2018-08-25T15:29:04.096Z,15.42
2018-08-25T15:31:32.545Z,15.60
2018-08-25T15:34:00.955Z,15.79
2018-08-25T15:36:29.403Z,15.85
2018-08-25T15:38:58.420Z,15.88
2018-08-25T15:41:26.870Z,15.89
2018-08-25T15:43:55.363Z,15.94
2018-08-25T15:46:23.796Z,16.06
2018-08-25T15:48:52.272Z,15.97
2018-08-25T15:51:23.399Z,16.09
2018-08-25T15:53:51.839Z,16.00
2018-08-25T15:56:20.264Z,15.92
2018-08-25T15:58:48.713Z,15.84
2018-08-25T16:01:17.173Z,15.78
2018-08-25T16:03:45.621Z,15.80
2018-08-25T16:06:14.093Z,15.99
2018-08-25T16:08:42.734Z,16.14
2018-08-25T16:11:11.143Z,16.31
2018-08-25T16:13:39.537Z,16.32
2018-08-25T16:16:07.993Z,16.31
2018-08-25T16:18:36.480Z,16.06
2018-08-25T16:21:04.997Z,15.90
2018-08-25T16:23:34.055Z,15.84
2018-08-25T16:26:02.512Z,15.65
2018-08-25T16:28:30.949Z,15.64
2018-08-25T16:30:59.367Z,15.63
2018-08-25T16:33:27.839Z,15.77
2018-08-25T16:35:56.229Z,15.98
2018-08-25T16:38:24.706Z,16.14
2018-08-25T16:40:53.118Z,16.43
2018-08-25T16:43:21.576Z,16.54
2018-08-25T16:45:50.037Z,16.73
2018-08-25T16:48:18.468Z,16.64
2018-08-25T16:50:46.969Z,16.51
2018-08-25T16:53:15.434Z,16.57
2018-08-25T16:55:44.479Z,16.60
2018-08-25T16:58:13.151Z,16.57
2018-08-25T17:00:42.209Z,16.36
2018-08-25T17:03:10.621Z,16.30
2018-08-25T17:05:39.066Z,16.23
2018-08-25T17:08:07.490Z,16.27
2018-08-25T17:10:35.969Z,16.31
2018-08-25T17:13:04.428Z,16.36
2018-08-25T17:15:32.845Z,16.37
2018-08-25T17:18:01.260Z,16.30
2018-08-25T17:20:29.684Z,16.26
2018-08-25T17:22:58.114Z,16.14
2018-08-25T17:25:26.533Z,16.02
2018-08-25T17:27:54.969Z,15.95
2018-08-25T17:30:23.435Z,15.93
2018-08-25T17:32:51.832Z,15.86
2018-08-25T17:35:20.260Z,15.79
2018-08-25T17:37:48.757Z,15.69
2018-08-25T17:40:17.387Z,15.57
2018-08-25T17:42:45.801Z,15.48
2018-08-25T17:45:15.199Z,15.48
2018-08-25T17:47:43.532Z,15.41
2018-08-25T17:50:12.022Z,15.15
2018-08-25T17:52:40.488Z,14.54
2018-08-25T17:55:08.934Z,14.30
2018-08-25T17:57:37.635Z,14.22
2018-08-25T18:00:06.665Z,14.18
2018-08-25T18:02:35.378Z,14.10
2018-08-25T18:05:03.938Z,14.02
2018-08-25T18:07:32.548Z,14.07
2018-08-25T18:10:01.288Z,14.07
2018-08-25T18:12:30.017Z,14.14
2018-08-25T18:14:59.262Z,14.27
2018-08-25T18:17:27.998Z,14.30
2018-08-25T18:19:56.738Z,14.18
2018-08-25T18:22:25.388Z,14.17
2018-08-25T18:24:54.101Z,14.18
2018-08-25T18:27:22.854Z,14.22
2018-08-25T18:29:51.421Z,14.27
2018-08-25T18:32:19.985Z,14.33
2018-08-25T18:34:48.952Z,14.38
2018-08-25T18:37:17.600Z,14.26
2018-08-25T18:39:46.352Z,14.26
2018-08-25T18:42:15.521Z,14.26
2018-08-25T18:44:44.020Z,14.27
2018-08-25T18:47:12.805Z,14.24
2018-08-25T18:49:41.632Z,14.24
2018-08-25T18:52:10.163Z,14.13
2018-08-25T18:54:38.671Z,14.06
2018-08-25T18:57:07.348Z,13.99
2018-08-25T18:59:35.865Z,13.99
2018-08-25T19:02:04.418Z,13.98
2018-08-25T19:04:33.036Z,14.02
2018-08-25T19:07:01.792Z,14.03
2018-08-25T19:09:30.303Z,13.96
2018-08-25T19:11:58.876Z,13.86
2018-08-25T19:14:27.443Z,13.82
2018-08-25T19:16:56.186Z,13.83
2018-08-25T19:19:24.972Z,13.81
2018-08-25T19:21:53.752Z,13.72
2018-08-25T19:24:22.673Z,13.67
2018-08-25T19:26:51.542Z,13.69
2018-08-25T19:29:20.243Z,13.67
2018-08-25T19:31:49.132Z,13.66
2018-08-25T19:34:17.929Z,13.63
2018-08-25T19:36:46.747Z,13.59
2018-08-25T19:39:15.704Z,13.59
2018-08-25T19:41:44.442Z,13.61
2018-08-25T19:44:13.179Z,13.64
2018-08-25T19:46:41.987Z,13.54
2018-08-25T19:49:10.802Z,13.47
2018-08-25T19:51:39.531Z,13.44
2018-08-25T19:54:08.282Z,13.37
2018-08-25T19:56:37.724Z,13.32
2018-08-25T19:59:06.496Z,13.31
2018-08-25T20:01:34.978Z,13.25
2018-08-25T20:04:03.772Z,13.10
2018-08-25T20:06:32.233Z,13.11
2018-08-25T20:09:00.968Z,13.07
2018-08-25T20:11:29.478Z,13.10
2018-08-25T20:13:58.195Z,13.01
2018-08-25T20:16:26.974Z,12.98
2018-08-25T20:18:55.433Z,12.91
2018-08-25T20:21:24.124Z,12.88
2018-08-25T20:23:52.634Z,12.83
2018-08-25T20:26:21.330Z,12.82
2018-08-25T20:28:50.123Z,12.79
2018-08-25T20:31:18.645Z,12.75
2018-08-25T20:33:47.391Z,12.80
2018-08-25T20:36:16.452Z,12.73
2018-08-25T20:38:44.990Z,12.73
2018-08-25T20:41:13.630Z,12.70
2018-08-25T20:43:42.105Z,12.68
2018-08-25T20:46:10.586Z,12.67
2018-08-25T20:48:39.047Z,12.65
2018-08-25T20:51:07.538Z,12.59
2018-08-25T20:53:36.021Z,12.52
2018-08-25T20:56:04.453Z,12.42
2018-08-25T20:58:32.910Z,12.42
2018-08-25T21:01:01.357Z,12.39
2018-08-25T21:03:30.619Z,12.31
2018-08-25T21:05:59.063Z,12.26
2018-08-25T21:08:27.953Z,12.25
2018-08-25T21:10:56.432Z,12.29
2018-08-25T21:13:24.830Z,12.28
2018-08-25T21:15:53.293Z,12.26
2018-08-25T21:18:21.678Z,12.25
2018-08-25T21:20:50.206Z,12.17
2018-08-25T21:23:18.828Z,12.14
2018-08-25T21:25:47.281Z,12.11
2018-08-25T21:28:15.704Z,12.05
2018-08-25T21:30:44.201Z,12.05
2018-08-25T21:33:12.684Z,12.07
2018-08-25T21:35:41.164Z,12.11
2018-08-25T21:38:09.608Z,12.12
2018-08-25T21:40:37.981Z,12.18
2018-08-25T21:43:06.486Z,12.23
2018-08-25T21:45:34.960Z,12.28
2018-08-25T21:48:03.452Z,12.30
2018-08-25T21:50:31.929Z,12.27
2018-08-25T21:53:00.365Z,12.25
2018-08-25T21:55:28.800Z,12.22
2018-08-25T21:57:57.324Z,12.11
2018-08-25T22:00:25.838Z,11.96
2018-08-25T22:02:54.317Z,11.87
2018-08-25T22:05:22.783Z,11.81
2018-08-25T22:07:51.221Z,11.77
2018-08-25T22:10:19.679Z,11.74
2018-08-25T22:12:48.120Z,11.78
2018-08-25T22:15:16.569Z,11.78
2018-08-25T22:17:44.943Z,11.73
2018-08-25T22:20:13.361Z,11.80
2018-08-25T22:22:41.785Z,11.86
2018-08-25T22:25:10.214Z,11.89
2018-08-25T22:27:38.644Z,11.93
2018-08-25T22:30:07.150Z,11.94
2018-08-25T22:32:35.586Z,11.90
2018-08-25T22:35:04.237Z,11.86
2018-08-25T22:37:32.682Z,11.78
2018-08-25T22:40:01.131Z,11.72
2018-08-25T22:42:29.623Z,11.70
2018-08-25T22:44:58.105Z,11.62
2018-08-25T22:47:26.561Z,11.65
2018-08-25T22:49:55.013Z,11.61
2018-08-25T22:52:58.193Z,11.55
2018-08-25T22:55:26.595Z,11.40
2018-08-25T22:57:55.296Z,11.31
2018-08-25T23:00:23.700Z,11.27
2018-08-25T23:02:52.132Z,11.19
2018-08-25T23:05:20.803Z,11.24
2018-08-25T23:07:49.258Z,11.22
2018-08-25T23:10:17.719Z,11.22
2018-08-25T23:12:46.175Z,11.15
2018-08-25T23:15:14.645Z,11.13
2018-08-25T23:17:43.135Z,11.12
2018-08-25T23:20:11.613Z,11.09
2018-08-25T23:22:40.103Z,11.07
2018-08-25T23:25:08.525Z,11.06
2018-08-25T23:27:36.962Z,11.02
2018-08-25T23:30:05.475Z,10.92
2018-08-25T23:32:33.937Z,10.89
2018-08-25T23:35:02.388Z,10.84
2018-08-25T23:37:30.844Z,10.86
2018-08-25T23:39:59.292Z,10.87
2018-08-25T23:42:27.760Z,10.77
2018-08-25T23:44:56.153Z,10.70
2018-08-25T23:47:24.606Z,10.63
2018-08-25T23:49:53.028Z,10.66
2018-08-25T23:52:21.529Z,10.79
2018-08-25T23:54:49.924Z,10.88
2018-08-25T23:57:18.349Z,10.87
2018-08-25T23:59:46.764Z,10.79
